sensor_id;sensor_type;location;lat;lon;timestamp;P1;durP1;ratioP1;P2;durP2;ratioP2
71144;SDS011;58812;47.698;17.726;2022-11-14T00:02:16;0.60;;;0.20;;
71144;SDS011;58812;47.698;17.726;2022-11-14T00:04:45;0.75;;;0.45;;
71144;SDS011;58812;47.698;17.726;2022-11-14T00:07:10;0.50;;;0.10;;
71144;SDS011;58812;47.698;17.726;2022-11-14T00:09:36;1.50;;;1.03;;
71144;SDS011;58812;47.698;17.726;2022-11-14T00:12:02;8.83;;;4.33;;
71144;SDS011;58812;47.698;17.726;2022-11-14T00:14:28;0.82;;;0.47;;
71144;SDS011;58812;47.698;17.726;2022-11-14T00:16:54;0.63;;;0.20;;
71144;SDS011;58812;47.698;17.726;2022-11-14T00:19:19;0.20;;;0.10;;
71144;SDS011;58812;47.698;17.726;2022-11-14T00:21:44;0.43;;;0.10;;
71144;SDS011;58812;47.698;17.726;2022-11-14T00:24:10;1.93;;;1.23;;
71144;SDS011;58812;47.698;17.726;2022-11-14T00:26:36;1.98;;;1.30;;
71144;SDS011;58812;47.698;17.726;2022-11-14T00:29:01;0.63;;;0.57;;
71144;SDS011;58812;47.698;17.726;2022-11-14T00:31:26;1.00;;;0.90;;
71144;SDS011;58812;47.698;17.726;2022-11-14T00:33:52;0.40;;;0.10;;
71144;SDS011;58812;47.698;17.726;2022-11-14T00:36:17;0.50;;;0.10;;
71144;SDS011;58812;47.698;17.726;2022-11-14T00:38:43;0.80;;;0.40;;
71144;SDS011;58812;47.698;17.726;2022-11-14T00:41:08;2.42;;;1.20;;
71144;SDS011;58812;47.698;17.726;2022-11-14T00:43:33;0.60;;;0.30;;
71144;SDS011;58812;47.698;17.726;2022-11-14T00:45:59;1.37;;;1.17;;
71144;SDS011;58812;47.698;17.726;2022-11-14T00:48:24;0.80;;;0.67;;
71144;SDS011;58812;47.698;17.726;2022-11-14T00:50:49;1.20;;;0.83;;
71144;SDS011;58812;47.698;17.726;2022-11-14T00:53:15;1.40;;;1.17;;
71144;SDS011;58812;47.698;17.726;2022-11-14T00:55:41;0.30;;;0.13;;
71144;SDS011;58812;47.698;17.726;2022-11-14T00:58:06;2.50;;;1.98;;
71144;SDS011;58812;47.698;17.726;2022-11-14T01:00:32;0.60;;;0.40;;
71144;SDS011;58812;47.698;17.726;2022-11-14T01:02:58;7.32;;;2.15;;
71144;SDS011;58812;47.698;17.726;2022-11-14T01:05:24;1.03;;;0.93;;
71144;SDS011;58812;47.698;17.726;2022-11-14T01:07:49;7.70;;;3.40;;
71144;SDS011;58812;47.698;17.726;2022-11-14T01:10:15;0.98;;;0.82;;
71144;SDS011;58812;47.698;17.726;2022-11-14T01:12:41;0.63;;;0.27;;
71144;SDS011;58812;47.698;17.726;2022-11-14T01:15:06;1.33;;;1.23;;
71144;SDS011;58812;47.698;17.726;2022-11-14T01:17:32;1.67;;;1.57;;
71144;SDS011;58812;47.698;17.726;2022-11-14T01:19:58;0.50;;;0.10;;
71144;SDS011;58812;47.698;17.726;2022-11-14T01:22:23;1.07;;;0.97;;
71144;SDS011;58812;47.698;17.726;2022-11-14T01:24:48;0.80;;;0.37;;
71144;SDS011;58812;47.698;17.726;2022-11-14T01:27:14;2.20;;;1.50;;
71144;SDS011;58812;47.698;17.726;2022-11-14T01:29:39;0.77;;;0.23;;
71144;SDS011;58812;47.698;17.726;2022-11-14T01:32:05;1.00;;;0.77;;
71144;SDS011;58812;47.698;17.726;2022-11-14T01:34:30;0.60;;;0.50;;
71144;SDS011;58812;47.698;17.726;2022-11-14T01:36:56;0.60;;;0.20;;
71144;SDS011;58812;47.698;17.726;2022-11-14T01:39:21;0.60;;;0.40;;
71144;SDS011;58812;47.698;17.726;2022-11-14T01:41:47;1.00;;;0.45;;
71144;SDS011;58812;47.698;17.726;2022-11-14T01:44:15;0.80;;;0.57;;
71144;SDS011;58812;47.698;17.726;2022-11-14T01:46:44;0.80;;;0.22;;
71144;SDS011;58812;47.698;17.726;2022-11-14T01:49:19;1.50;;;0.70;;
71144;SDS011;58812;47.698;17.726;2022-11-14T01:51:58;1.90;;;1.50;;
71144;SDS011;58812;47.698;17.726;2022-11-14T01:54:34;1.27;;;1.00;;
71144;SDS011;58812;47.698;17.726;2022-11-14T01:57:02;0.55;;;0.30;;
71144;SDS011;58812;47.698;17.726;2022-11-14T01:59:31;2.53;;;1.67;;
71144;SDS011;58812;47.698;17.726;2022-11-14T02:02:43;1.02;;;0.73;;
71144;SDS011;58812;47.698;17.726;2022-11-14T02:04:54;1.93;;;1.13;;
71144;SDS011;58812;47.698;17.726;2022-11-14T02:07:23;10.68;;;2.58;;
71144;SDS011;58812;47.698;17.726;2022-11-14T02:09:51;1.50;;;1.33;;
71144;SDS011;58812;47.698;17.726;2022-11-14T02:12:18;0.60;;;0.30;;
71144;SDS011;58812;47.698;17.726;2022-11-14T02:14:44;0.43;;;0.13;;
71144;SDS011;58812;47.698;17.726;2022-11-14T02:17:12;1.17;;;0.83;;
71144;SDS011;58812;47.698;17.726;2022-11-14T02:19:40;0.80;;;0.30;;
71144;SDS011;58812;47.698;17.726;2022-11-14T02:22:14;2.05;;;1.87;;
71144;SDS011;58812;47.698;17.726;2022-11-14T02:24:39;1.30;;;1.20;;
71144;SDS011;58812;47.698;17.726;2022-11-14T02:27:05;1.17;;;0.88;;
71144;SDS011;58812;47.698;17.726;2022-11-14T02:29:33;1.58;;;0.93;;
71144;SDS011;58812;47.698;17.726;2022-11-14T02:31:59;0.30;;;0.10;;
71144;SDS011;58812;47.698;17.726;2022-11-14T02:34:24;0.93;;;0.77;;
71144;SDS011;58812;47.698;17.726;2022-11-14T02:36:50;0.63;;;0.50;;
71144;SDS011;58812;47.698;17.726;2022-11-14T02:39:15;0.40;;;0.10;;
71144;SDS011;58812;47.698;17.726;2022-11-14T02:41:41;1.90;;;0.90;;
71144;SDS011;58812;47.698;17.726;2022-11-14T02:44:06;0.97;;;0.53;;
71144;SDS011;58812;47.698;17.726;2022-11-14T02:46:32;0.67;;;0.17;;
71144;SDS011;58812;47.698;17.726;2022-11-14T02:48:57;0.47;;;0.10;;
71144;SDS011;58812;47.698;17.726;2022-11-14T02:51:22;1.47;;;1.03;;
71144;SDS011;58812;47.698;17.726;2022-11-14T02:53:48;0.75;;;0.45;;
71144;SDS011;58812;47.698;17.726;2022-11-14T02:56:13;0.43;;;0.10;;
71144;SDS011;58812;47.698;17.726;2022-11-14T02:58:39;0.67;;;0.20;;
71144;SDS011;58812;47.698;17.726;2022-11-14T03:01:04;0.87;;;0.70;;
71144;SDS011;58812;47.698;17.726;2022-11-14T03:03:29;0.93;;;0.73;;
71144;SDS011;58812;47.698;17.726;2022-11-14T03:06:01;0.90;;;0.67;;
71144;SDS011;58812;47.698;17.726;2022-11-14T03:08:28;0.50;;;0.20;;
71144;SDS011;58812;47.698;17.726;2022-11-14T03:10:53;10.23;;;1.37;;
71144;SDS011;58812;47.698;17.726;2022-11-14T03:13:19;1.53;;;1.23;;
71144;SDS011;58812;47.698;17.726;2022-11-14T03:15:44;0.68;;;0.52;;
71144;SDS011;58812;47.698;17.726;2022-11-14T03:18:10;0.50;;;0.40;;
71144;SDS011;58812;47.698;17.726;2022-11-14T03:20:35;1.23;;;0.83;;
71144;SDS011;58812;47.698;17.726;2022-11-14T03:23:01;0.73;;;0.57;;
71144;SDS011;58812;47.698;17.726;2022-11-14T03:25:26;0.40;;;0.10;;
71144;SDS011;58812;47.698;17.726;2022-11-14T03:27:52;1.03;;;0.77;;
71144;SDS011;58812;47.698;17.726;2022-11-14T03:30:17;3.70;;;1.43;;
71144;SDS011;58812;47.698;17.726;2022-11-14T03:32:42;0.50;;;0.10;;
71144;SDS011;58812;47.698;17.726;2022-11-14T03:35:08;0.80;;;0.43;;
71144;SDS011;58812;47.698;17.726;2022-11-14T03:37:34;0.30;;;0.10;;
71144;SDS011;58812;47.698;17.726;2022-11-14T03:39:59;1.00;;;0.62;;
71144;SDS011;58812;47.698;17.726;2022-11-14T03:42:24;0.30;;;0.10;;
71144;SDS011;58812;47.698;17.726;2022-11-14T03:44:50;0.50;;;0.20;;
71144;SDS011;58812;47.698;17.726;2022-11-14T03:47:15;0.47;;;0.10;;
71144;SDS011;58812;47.698;17.726;2022-11-14T03:49:41;1.15;;;1.05;;
71144;SDS011;58812;47.698;17.726;2022-11-14T03:52:08;0.20;;;0.10;;
71144;SDS011;58812;47.698;17.726;2022-11-14T03:54:35;0.50;;;0.30;;
71144;SDS011;58812;47.698;17.726;2022-11-14T03:57:00;4.13;;;1.23;;
71144;SDS011;58812;47.698;17.726;2022-11-14T03:59:25;0.45;;;0.10;;
71144;SDS011;58812;47.698;17.726;2022-11-14T04:01:51;0.20;;;0.10;;
71144;SDS011;58812;47.698;17.726;2022-11-14T04:04:16;0.50;;;0.10;;
71144;SDS011;58812;47.698;17.726;2022-11-14T04:06:41;0.30;;;0.10;;
71144;SDS011;58812;47.698;17.726;2022-11-14T04:09:08;0.27;;;0.10;;
71144;SDS011;58812;47.698;17.726;2022-11-14T04:11:34;0.20;;;0.10;;
71144;SDS011;58812;47.698;17.726;2022-11-14T04:13:59;0.23;;;0.10;;
71144;SDS011;58812;47.698;17.726;2022-11-14T04:16:25;0.97;;;0.87;;
71144;SDS011;58812;47.698;17.726;2022-11-14T04:18:50;2.15;;;1.27;;
71144;SDS011;58812;47.698;17.726;2022-11-14T04:21:15;0.50;;;0.10;;
71144;SDS011;58812;47.698;17.726;2022-11-14T04:23:41;0.87;;;0.50;;
71144;SDS011;58812;47.698;17.726;2022-11-14T04:26:06;0.50;;;0.20;;
71144;SDS011;58812;47.698;17.726;2022-11-14T04:28:31;0.73;;;0.33;;
71144;SDS011;58812;47.698;17.726;2022-11-14T04:30:57;0.60;;;0.13;;
71144;SDS011;58812;47.698;17.726;2022-11-14T04:33:24;3.47;;;2.37;;
71144;SDS011;58812;47.698;17.726;2022-11-14T04:35:49;0.88;;;0.40;;
71144;SDS011;58812;47.698;17.726;2022-11-14T04:38:15;0.40;;;0.10;;
71144;SDS011;58812;47.698;17.726;2022-11-14T04:40:44;4.07;;;1.60;;
71144;SDS011;58812;47.698;17.726;2022-11-14T04:43:12;0.55;;;0.22;;
71144;SDS011;58812;47.698;17.726;2022-11-14T04:45:38;0.50;;;0.27;;
71144;SDS011;58812;47.698;17.726;2022-11-14T04:48:03;0.70;;;0.50;;
71144;SDS011;58812;47.698;17.726;2022-11-14T04:50:28;0.43;;;0.13;;
71144;SDS011;58812;47.698;17.726;2022-11-14T04:52:54;0.40;;;0.10;;
71144;SDS011;58812;47.698;17.726;2022-11-14T04:55:19;0.30;;;0.10;;
71144;SDS011;58812;47.698;17.726;2022-11-14T04:57:45;0.67;;;0.30;;
71144;SDS011;58812;47.698;17.726;2022-11-14T05:00:10;3.90;;;1.47;;
71144;SDS011;58812;47.698;17.726;2022-11-14T05:02:36;0.60;;;0.30;;
71144;SDS011;58812;47.698;17.726;2022-11-14T05:05:01;2.93;;;1.40;;
71144;SDS011;58812;47.698;17.726;2022-11-14T05:07:27;0.93;;;0.53;;
71144;SDS011;58812;47.698;17.726;2022-11-14T05:09:52;0.20;;;0.00;;
71144;SDS011;58812;47.698;17.726;2022-11-14T05:12:18;0.37;;;0.10;;
71144;SDS011;58812;47.698;17.726;2022-11-14T05:14:43;0.70;;;0.30;;
71144;SDS011;58812;47.698;17.726;2022-11-14T05:17:08;0.40;;;0.10;;
71144;SDS011;58812;47.698;17.726;2022-11-14T05:19:34;7.13;;;6.53;;
71144;SDS011;58812;47.698;17.726;2022-11-14T05:21:59;0.53;;;0.10;;
71144;SDS011;58812;47.698;17.726;2022-11-14T05:24:24;0.30;;;0.10;;
71144;SDS011;58812;47.698;17.726;2022-11-14T05:26:50;0.57;;;0.25;;
71144;SDS011;58812;47.698;17.726;2022-11-14T05:29:15;0.50;;;0.10;;
71144;SDS011;58812;47.698;17.726;2022-11-14T05:31:40;1.23;;;1.13;;
71144;SDS011;58812;47.698;17.726;2022-11-14T05:34:06;0.20;;;0.00;;
71144;SDS011;58812;47.698;17.726;2022-11-14T05:36:31;0.20;;;0.00;;
71144;SDS011;58812;47.698;17.726;2022-11-14T05:38:56;0.40;;;0.10;;
71144;SDS011;58812;47.698;17.726;2022-11-14T05:41:22;2.47;;;1.52;;
71144;SDS011;58812;47.698;17.726;2022-11-14T05:43:47;0.43;;;0.10;;
71144;SDS011;58812;47.698;17.726;2022-11-14T05:46:13;0.63;;;0.20;;
71144;SDS011;58812;47.698;17.726;2022-11-14T05:48:40;1.45;;;1.02;;
71144;SDS011;58812;47.698;17.726;2022-11-14T05:51:06;0.70;;;0.35;;
71144;SDS011;58812;47.698;17.726;2022-11-14T05:53:34;2.30;;;2.10;;
71144;SDS011;58812;47.698;17.726;2022-11-14T05:56:00;4.32;;;1.80;;
71144;SDS011;58812;47.698;17.726;2022-11-14T05:58:26;0.40;;;0.20;;
71144;SDS011;58812;47.698;17.726;2022-11-14T06:00:52;0.30;;;0.10;;
71144;SDS011;58812;47.698;17.726;2022-11-14T06:03:17;0.30;;;0.10;;
71144;SDS011;58812;47.698;17.726;2022-11-14T06:05:42;0.60;;;0.30;;
71144;SDS011;58812;47.698;17.726;2022-11-14T06:08:08;1.07;;;0.77;;
71144;SDS011;58812;47.698;17.726;2022-11-14T06:10:33;0.93;;;0.80;;
71144;SDS011;58812;47.698;17.726;2022-11-14T06:12:59;7.00;;;2.20;;
71144;SDS011;58812;47.698;17.726;2022-11-14T06:15:25;0.93;;;0.80;;
71144;SDS011;58812;47.698;17.726;2022-11-14T06:17:53;4.20;;;1.57;;
71144;SDS011;58812;47.698;17.726;2022-11-14T06:20:19;0.80;;;0.52;;
71144;SDS011;58812;47.698;17.726;2022-11-14T06:22:45;0.40;;;0.20;;
71144;SDS011;58812;47.698;17.726;2022-11-14T06:25:11;0.95;;;0.68;;
71144;SDS011;58812;47.698;17.726;2022-11-14T06:27:36;0.50;;;0.20;;
71144;SDS011;58812;47.698;17.726;2022-11-14T06:30:01;3.87;;;1.40;;
71144;SDS011;58812;47.698;17.726;2022-11-14T06:32:27;0.85;;;0.50;;
71144;SDS011;58812;47.698;17.726;2022-11-14T06:34:52;2.07;;;1.87;;
71144;SDS011;58812;47.698;17.726;2022-11-14T06:37:18;0.60;;;0.40;;
71144;SDS011;58812;47.698;17.726;2022-11-14T06:39:43;0.63;;;0.27;;
71144;SDS011;58812;47.698;17.726;2022-11-14T06:42:08;0.77;;;0.30;;
71144;SDS011;58812;47.698;17.726;2022-11-14T06:44:34;0.55;;;0.43;;
71144;SDS011;58812;47.698;17.726;2022-11-14T06:46:59;2.10;;;0.93;;
71144;SDS011;58812;47.698;17.726;2022-11-14T06:49:25;2.53;;;1.43;;
71144;SDS011;58812;47.698;17.726;2022-11-14T06:51:51;1.75;;;1.65;;
71144;SDS011;58812;47.698;17.726;2022-11-14T06:54:17;1.00;;;0.73;;
71144;SDS011;58812;47.698;17.726;2022-11-14T06:56:42;0.65;;;0.40;;
71144;SDS011;58812;47.698;17.726;2022-11-14T06:59:08;2.50;;;1.80;;
71144;SDS011;58812;47.698;17.726;2022-11-14T07:01:33;0.60;;;0.10;;
71144;SDS011;58812;47.698;17.726;2022-11-14T07:03:58;0.50;;;0.10;;
71144;SDS011;58812;47.698;17.726;2022-11-14T07:06:26;0.57;;;0.20;;
71144;SDS011;58812;47.698;17.726;2022-11-14T07:08:53;0.40;;;0.10;;
71144;SDS011;58812;47.698;17.726;2022-11-14T07:11:20;6.53;;;1.42;;
71144;SDS011;58812;47.698;17.726;2022-11-14T07:13:52;0.47;;;0.23;;
71144;SDS011;58812;47.698;17.726;2022-11-14T07:16:18;0.55;;;0.20;;
71144;SDS011;58812;47.698;17.726;2022-11-14T07:18:45;0.60;;;0.30;;
71144;SDS011;58812;47.698;17.726;2022-11-14T07:21:13;0.62;;;0.40;;
71144;SDS011;58812;47.698;17.726;2022-11-14T07:23:39;1.50;;;1.40;;
71144;SDS011;58812;47.698;17.726;2022-11-14T07:26:06;0.88;;;0.35;;
71144;SDS011;58812;47.698;17.726;2022-11-14T07:28:34;0.50;;;0.30;;
71144;SDS011;58812;47.698;17.726;2022-11-14T07:31:03;6.00;;;1.47;;
71144;SDS011;58812;47.698;17.726;2022-11-14T07:33:31;0.50;;;0.20;;
71144;SDS011;58812;47.698;17.726;2022-11-14T07:35:57;2.65;;;1.25;;
71144;SDS011;58812;47.698;17.726;2022-11-14T07:38:22;0.50;;;0.27;;
71144;SDS011;58812;47.698;17.726;2022-11-14T07:40:55;0.93;;;0.57;;
71144;SDS011;58812;47.698;17.726;2022-11-14T07:43:21;0.40;;;0.10;;
71144;SDS011;58812;47.698;17.726;2022-11-14T07:45:47;0.47;;;0.10;;
71144;SDS011;58812;47.698;17.726;2022-11-14T07:48:12;0.73;;;0.37;;
71144;SDS011;58812;47.698;17.726;2022-11-14T07:50:38;1.13;;;1.03;;
71144;SDS011;58812;47.698;17.726;2022-11-14T07:53:03;1.10;;;0.87;;
71144;SDS011;58812;47.698;17.726;2022-11-14T07:55:28;0.70;;;0.30;;
71144;SDS011;58812;47.698;17.726;2022-11-14T07:57:54;0.30;;;0.10;;
71144;SDS011;58812;47.698;17.726;2022-11-14T08:00:22;2.25;;;1.50;;
71144;SDS011;58812;47.698;17.726;2022-11-14T08:02:48;0.83;;;0.57;;
71144;SDS011;58812;47.698;17.726;2022-11-14T08:05:13;0.77;;;0.43;;
71144;SDS011;58812;47.698;17.726;2022-11-14T08:07:38;2.20;;;2.00;;
71144;SDS011;58812;47.698;17.726;2022-11-14T08:10:04;1.00;;;0.43;;
71144;SDS011;58812;47.698;17.726;2022-11-14T08:12:30;3.83;;;1.95;;
71144;SDS011;58812;47.698;17.726;2022-11-14T08:14:55;1.23;;;1.13;;
71144;SDS011;58812;47.698;17.726;2022-11-14T08:17:21;1.03;;;0.40;;
71144;SDS011;58812;47.698;17.726;2022-11-14T08:19:47;1.67;;;0.85;;
71144;SDS011;58812;47.698;17.726;2022-11-14T08:22:12;0.63;;;0.20;;
71144;SDS011;58812;47.698;17.726;2022-11-14T08:24:38;1.52;;;1.05;;
71144;SDS011;58812;47.698;17.726;2022-11-14T08:27:03;1.23;;;0.50;;
71144;SDS011;58812;47.698;17.726;2022-11-14T08:29:28;1.20;;;0.70;;
71144;SDS011;58812;47.698;17.726;2022-11-14T08:31:54;0.50;;;0.10;;
71144;SDS011;58812;47.698;17.726;2022-11-14T08:34:19;4.77;;;1.93;;
71144;SDS011;58812;47.698;17.726;2022-11-14T08:36:46;1.25;;;1.02;;
71144;SDS011;58812;47.698;17.726;2022-11-14T08:39:12;1.40;;;0.98;;
71144;SDS011;58812;47.698;17.726;2022-11-14T08:41:37;2.00;;;1.40;;
71144;SDS011;58812;47.698;17.726;2022-11-14T08:44:02;2.50;;;1.90;;
71144;SDS011;58812;47.698;17.726;2022-11-14T08:46:28;0.53;;;0.13;;
71144;SDS011;58812;47.698;17.726;2022-11-14T08:48:53;1.35;;;0.62;;
71144;SDS011;58812;47.698;17.726;2022-11-14T08:51:19;1.17;;;0.83;;
71144;SDS011;58812;47.698;17.726;2022-11-14T08:53:44;1.93;;;1.60;;
71144;SDS011;58812;47.698;17.726;2022-11-14T08:56:09;1.00;;;0.40;;
71144;SDS011;58812;47.698;17.726;2022-11-14T08:58:35;3.70;;;0.82;;
71144;SDS011;58812;47.698;17.726;2022-11-14T09:01:01;2.30;;;1.50;;
71144;SDS011;58812;47.698;17.726;2022-11-14T09:03:29;1.58;;;0.65;;
71144;SDS011;58812;47.698;17.726;2022-11-14T09:05:54;2.37;;;1.87;;
71144;SDS011;58812;47.698;17.726;2022-11-14T09:08:20;2.17;;;1.48;;
71144;SDS011;58812;47.698;17.726;2022-11-14T09:10:46;2.60;;;1.67;;
71144;SDS011;58812;47.698;17.726;2022-11-14T09:13:12;9.15;;;7.78;;
71144;SDS011;58812;47.698;17.726;2022-11-14T09:15:37;1.40;;;1.03;;
71144;SDS011;58812;47.698;17.726;2022-11-14T09:18:03;16.57;;;14.70;;
71144;SDS011;58812;47.698;17.726;2022-11-14T09:20:28;34.30;;;23.00;;
71144;SDS011;58812;47.698;17.726;2022-11-14T09:22:57;69.87;;;36.93;;
71144;SDS011;58812;47.698;17.726;2022-11-14T09:25:22;39.10;;;18.85;;
71144;SDS011;58812;47.698;17.726;2022-11-14T09:27:50;8.35;;;6.95;;
71144;SDS011;58812;47.698;17.726;2022-11-14T09:30:16;27.13;;;12.10;;
71144;SDS011;58812;47.698;17.726;2022-11-14T09:32:41;35.23;;;16.07;;
71144;SDS011;58812;47.698;17.726;2022-11-14T09:35:06;50.43;;;20.57;;
71144;SDS011;58812;47.698;17.726;2022-11-14T09:37:32;24.07;;;13.97;;
71144;SDS011;58812;47.698;17.726;2022-11-14T09:40:00;14.63;;;9.65;;
71144;SDS011;58812;47.698;17.726;2022-11-14T09:42:50;126.57;;;67.30;;
71144;SDS011;58812;47.698;17.726;2022-11-14T09:45:37;86.50;;;40.08;;
71144;SDS011;58812;47.698;17.726;2022-11-14T09:48:12;43.25;;;22.80;;
71144;SDS011;58812;47.698;17.726;2022-11-14T09:50:43;77.13;;;39.13;;
71144;SDS011;58812;47.698;17.726;2022-11-14T09:53:21;66.15;;;43.17;;
71144;SDS011;58812;47.698;17.726;2022-11-14T09:56:00;67.40;;;39.28;;
71144;SDS011;58812;47.698;17.726;2022-11-14T09:58:26;60.97;;;30.63;;
71144;SDS011;58812;47.698;17.726;2022-11-14T10:01:04;35.50;;;18.10;;
71144;SDS011;58812;47.698;17.726;2022-11-14T10:03:46;31.52;;;13.18;;
71144;SDS011;58812;47.698;17.726;2022-11-14T10:06:32;14.00;;;6.43;;
71144;SDS011;58812;47.698;17.726;2022-11-14T10:09:16;5.82;;;3.25;;
71144;SDS011;58812;47.698;17.726;2022-11-14T10:11:58;13.77;;;11.05;;
71144;SDS011;58812;47.698;17.726;2022-11-14T10:19:46;2.33;;;1.03;;
71144;SDS011;58812;47.698;17.726;2022-11-14T10:25:15;9.85;;;1.95;;
71144;SDS011;58812;47.698;17.726;2022-11-14T10:30:23;8.52;;;2.47;;
71144;SDS011;58812;47.698;17.726;2022-11-14T10:35:38;8.32;;;2.65;;
71144;SDS011;58812;47.698;17.726;2022-11-14T10:41:05;0.70;;;0.30;;
71144;SDS011;58812;47.698;17.726;2022-11-14T10:43:41;1.45;;;0.65;;
71144;SDS011;58812;47.698;17.726;2022-11-14T10:46:20;2.07;;;1.07;;
71144;SDS011;58812;47.698;17.726;2022-11-14T10:48:49;1.33;;;0.60;;
71144;SDS011;58812;47.698;17.726;2022-11-14T10:51:18;1.40;;;0.85;;
71144;SDS011;58812;47.698;17.726;2022-11-14T10:54:05;2.22;;;1.15;;
71144;SDS011;58812;47.698;17.726;2022-11-14T10:56:48;1.05;;;0.47;;
71144;SDS011;58812;47.698;17.726;2022-11-14T10:59:15;0.77;;;0.30;;
71144;SDS011;58812;47.698;17.726;2022-11-14T11:04:41;1.65;;;0.77;;
71144;SDS011;58812;47.698;17.726;2022-11-14T11:09:37;0.98;;;0.32;;
71144;SDS011;58812;47.698;17.726;2022-11-14T11:17:54;24.55;;;12.10;;
71144;SDS011;58812;47.698;17.726;2022-11-14T11:23:00;7.25;;;5.40;;
71144;SDS011;58812;47.698;17.726;2022-11-14T11:25:27;10.20;;;3.57;;
71144;SDS011;58812;47.698;17.726;2022-11-14T11:28:16;3.47;;;0.90;;
71144;SDS011;58812;47.698;17.726;2022-11-14T11:30:53;2.25;;;1.08;;
71144;SDS011;58812;47.698;17.726;2022-11-14T11:35:49;1.43;;;0.90;;
71144;SDS011;58812;47.698;17.726;2022-11-14T11:38:16;2.22;;;1.08;;
71144;SDS011;58812;47.698;17.726;2022-11-14T11:40:43;1.00;;;0.60;;
71144;SDS011;58812;47.698;17.726;2022-11-14T11:43:26;1.50;;;0.50;;
71144;SDS011;58812;47.698;17.726;2022-11-14T11:46:00;2.87;;;1.98;;
71144;SDS011;58812;47.698;17.726;2022-11-14T11:48:33;4.03;;;0.70;;
71144;SDS011;58812;47.698;17.726;2022-11-14T11:51:03;1.45;;;0.50;;
71144;SDS011;58812;47.698;17.726;2022-11-14T11:53:35;4.57;;;0.67;;
71144;SDS011;58812;47.698;17.726;2022-11-14T11:56:08;4.80;;;2.80;;
71144;SDS011;58812;47.698;17.726;2022-11-14T11:58:48;2.17;;;1.67;;
71144;SDS011;58812;47.698;17.726;2022-11-14T12:01:15;8.38;;;3.28;;
71144;SDS011;58812;47.698;17.726;2022-11-14T12:03:44;14.30;;;10.60;;
71144;SDS011;58812;47.698;17.726;2022-11-14T12:11:24;4.87;;;2.83;;
71144;SDS011;58812;47.698;17.726;2022-11-14T12:32:40;21.57;;;13.73;;
71144;SDS011;58812;47.698;17.726;2022-11-14T12:35:15;36.80;;;16.58;;
71144;SDS011;58812;47.698;17.726;2022-11-14T12:37:53;9.32;;;8.55;;
71144;SDS011;58812;47.698;17.726;2022-11-14T12:40:25;22.45;;;11.02;;
71144;SDS011;58812;47.698;17.726;2022-11-14T12:42:54;6.40;;;2.37;;
71144;SDS011;58812;47.698;17.726;2022-11-14T12:48:20;18.58;;;4.85;;
71144;SDS011;58812;47.698;17.726;2022-11-14T12:50:49;11.10;;;3.83;;
71144;SDS011;58812;47.698;17.726;2022-11-14T13:07:11;1.87;;;1.05;;
71144;SDS011;58812;47.698;17.726;2022-11-14T13:10:21;3.47;;;2.20;;
71144;SDS011;58812;47.698;17.726;2022-11-14T13:13:11;7.23;;;3.20;;
71144;SDS011;58812;47.698;17.726;2022-11-14T13:15:57;3.85;;;2.95;;
71144;SDS011;58812;47.698;17.726;2022-11-14T13:21:33;1.92;;;1.10;;
71144;SDS011;58812;47.698;17.726;2022-11-14T13:24:14;4.70;;;1.33;;
71144;SDS011;58812;47.698;17.726;2022-11-14T13:26:52;5.13;;;2.47;;
71144;SDS011;58812;47.698;17.726;2022-11-14T13:32:03;2.70;;;1.17;;
71144;SDS011;58812;47.698;17.726;2022-11-14T13:34:38;2.42;;;0.95;;
71144;SDS011;58812;47.698;17.726;2022-11-14T13:40:06;1.63;;;1.13;;
71144;SDS011;58812;47.698;17.726;2022-11-14T13:50:54;1.10;;;0.60;;
71144;SDS011;58812;47.698;17.726;2022-11-14T13:53:23;2.00;;;1.30;;
71144;SDS011;58812;47.698;17.726;2022-11-14T14:12:05;1.40;;;0.80;;
71144;SDS011;58812;47.698;17.726;2022-11-14T14:15:17;1.12;;;0.47;;
71144;SDS011;58812;47.698;17.726;2022-11-14T14:21:17;2.12;;;1.52;;
71144;SDS011;58812;47.698;17.726;2022-11-14T14:24:18;2.10;;;1.25;;
71144;SDS011;58812;47.698;17.726;2022-11-14T14:27:00;2.00;;;0.67;;
71144;SDS011;58812;47.698;17.726;2022-11-14T14:29:39;2.75;;;1.62;;
71144;SDS011;58812;47.698;17.726;2022-11-14T14:32:13;1.10;;;0.47;;
71144;SDS011;58812;47.698;17.726;2022-11-14T14:34:41;1.55;;;1.27;;
71144;SDS011;58812;47.698;17.726;2022-11-14T14:37:17;1.20;;;0.70;;
71144;SDS011;58812;47.698;17.726;2022-11-14T14:42:35;1.27;;;0.50;;
71144;SDS011;58812;47.698;17.726;2022-11-14T14:45:03;1.98;;;0.98;;
71144;SDS011;58812;47.698;17.726;2022-11-14T14:47:41;3.03;;;2.72;;
71144;SDS011;58812;47.698;17.726;2022-11-14T14:53:01;2.17;;;1.10;;
71144;SDS011;58812;47.698;17.726;2022-11-14T14:55:31;5.10;;;2.10;;
71144;SDS011;58812;47.698;17.726;2022-11-14T15:00:50;6.72;;;3.40;;
71144;SDS011;58812;47.698;17.726;2022-11-14T15:03:19;4.23;;;2.10;;
71144;SDS011;58812;47.698;17.726;2022-11-14T15:05:46;3.72;;;3.42;;
71144;SDS011;58812;47.698;17.726;2022-11-14T15:08:12;1.73;;;1.23;;
71144;SDS011;58812;47.698;17.726;2022-11-14T15:10:40;3.80;;;2.75;;
71144;SDS011;58812;47.698;17.726;2022-11-14T15:13:07;2.85;;;1.15;;
71144;SDS011;58812;47.698;17.726;2022-11-14T15:15:35;1.70;;;1.40;;
71144;SDS011;58812;47.698;17.726;2022-11-14T15:18:04;3.15;;;1.17;;
71144;SDS011;58812;47.698;17.726;2022-11-14T15:20:31;1.50;;;1.13;;
71144;SDS011;58812;47.698;17.726;2022-11-14T15:25:29;1.52;;;1.23;;
71144;SDS011;58812;47.698;17.726;2022-11-14T15:27:55;1.03;;;0.50;;
71144;SDS011;58812;47.698;17.726;2022-11-14T15:30:26;2.45;;;2.25;;
71144;SDS011;58812;47.698;17.726;2022-11-14T15:32:56;1.00;;;0.68;;
71144;SDS011;58812;47.698;17.726;2022-11-14T15:35:25;6.60;;;2.97;;
71144;SDS011;58812;47.698;17.726;2022-11-14T15:40:36;3.72;;;1.45;;
71144;SDS011;58812;47.698;17.726;2022-11-14T15:45:59;1.52;;;1.05;;
71144;SDS011;58812;47.698;17.726;2022-11-14T15:48:25;1.57;;;1.23;;
71144;SDS011;58812;47.698;17.726;2022-11-14T15:50:50;1.17;;;0.70;;
71144;SDS011;58812;47.698;17.726;2022-11-14T15:53:19;1.37;;;0.67;;
71144;SDS011;58812;47.698;17.726;2022-11-14T15:55:50;1.70;;;1.50;;
71144;SDS011;58812;47.698;17.726;2022-11-14T15:58:15;1.83;;;1.23;;
71144;SDS011;58812;47.698;17.726;2022-11-14T16:00:45;1.17;;;0.77;;
71144;SDS011;58812;47.698;17.726;2022-11-14T16:03:14;2.97;;;1.33;;
71144;SDS011;58812;47.698;17.726;2022-11-14T16:05:42;1.40;;;1.07;;
71144;SDS011;58812;47.698;17.726;2022-11-14T16:08:09;0.62;;;0.10;;
71144;SDS011;58812;47.698;17.726;2022-11-14T16:10:35;2.65;;;2.45;;
71144;SDS011;58812;47.698;17.726;2022-11-14T16:13:00;0.90;;;0.37;;
71144;SDS011;58812;47.698;17.726;2022-11-14T16:15:25;0.90;;;0.40;;
71144;SDS011;58812;47.698;17.726;2022-11-14T16:17:51;0.97;;;0.63;;
71144;SDS011;58812;47.698;17.726;2022-11-14T16:20:17;2.60;;;1.07;;
71144;SDS011;58812;47.698;17.726;2022-11-14T16:22:45;1.77;;;0.68;;
71144;SDS011;58812;47.698;17.726;2022-11-14T16:25:14;2.65;;;2.25;;
71144;SDS011;58812;47.698;17.726;2022-11-14T16:27:42;1.35;;;1.23;;
71144;SDS011;58812;47.698;17.726;2022-11-14T16:30:09;4.17;;;1.57;;
71144;SDS011;58812;47.698;17.726;2022-11-14T16:32:35;1.52;;;1.00;;
71144;SDS011;58812;47.698;17.726;2022-11-14T16:35:01;1.40;;;0.97;;
71144;SDS011;58812;47.698;17.726;2022-11-14T16:37:26;2.20;;;1.90;;
71144;SDS011;58812;47.698;17.726;2022-11-14T16:39:51;1.63;;;0.93;;
71144;SDS011;58812;47.698;17.726;2022-11-14T16:42:17;1.43;;;1.13;;
71144;SDS011;58812;47.698;17.726;2022-11-14T16:44:42;1.63;;;1.17;;
71144;SDS011;58812;47.698;17.726;2022-11-14T16:47:08;0.50;;;0.10;;